sensor_id;sensor_type;location;lat;lon;timestamp;P1;P2;P0
50589;PMS7003;36547;50.514;30.840;2024-03-08T00:00:07;57.90;47.20;29.30
50589;PMS7003;36547;50.514;30.840;2024-03-08T00:01:12;60.80;49.50;29.10
50589;PMS7003;36547;50.514;30.840;2024-03-08T00:02:15;58.40;48.30;30.30
50589;PMS7003;36547;50.514;30.840;2024-03-08T00:03:17;54.40;45.80;27.90
50589;PMS7003;36547;50.514;30.840;2024-03-08T00:04:19;54.40;45.70;28.50
50589;PMS7003;36547;50.514;30.840;2024-03-08T00:05:22;56.70;46.50;27.20
50589;PMS7003;36547;50.514;30.840;2024-03-08T00:06:25;59.40;48.60;30.10
50589;PMS7003;36547;50.514;30.840;2024-03-08T00:07:27;60.90;49.00;31.20
50589;PMS7003;36547;50.514;30.840;2024-03-08T00:08:30;61.20;48.90;30.90
50589;PMS7003;36547;50.514;30.840;2024-03-08T00:09:32;58.50;49.30;30.30
50589;PMS7003;36547;50.514;30.840;2024-03-08T00:10:35;62.80;48.50;31.40
50589;PMS7003;36547;50.514;30.840;2024-03-08T00:11:38;65.73;53.27;32.18
50589;PMS7003;36547;50.514;30.840;2024-03-08T00:12:41;61.80;50.80;33.00
50589;PMS7003;36547;50.514;30.840;2024-03-08T00:13:45;59.90;51.10;30.30
50589;PMS7003;36547;50.514;30.840;2024-03-08T00:14:47;62.60;49.40;30.90
50589;PMS7003;36547;50.514;30.840;2024-03-08T00:15:50;56.30;47.80;31.40
50589;PMS7003;36547;50.514;30.840;2024-03-08T00:16:52;63.20;50.60;31.50
50589;PMS7003;36547;50.514;30.840;2024-03-08T00:17:54;62.56;51.11;29.67
50589;PMS7003;36547;50.514;30.840;2024-03-08T00:18:56;58.90;49.30;31.20
50589;PMS7003;36547;50.514;30.840;2024-03-08T00:19:59;64.00;48.90;32.00
50589;PMS7003;36547;50.514;30.840;2024-03-08T00:21:01;55.67;47.11;30.44
50589;PMS7003;36547;50.514;30.840;2024-03-08T00:22:04;55.90;47.80;30.10
50589;PMS7003;36547;50.514;30.840;2024-03-08T00:23:06;59.20;49.50;30.10
50589;PMS7003;36547;50.514;30.840;2024-03-08T00:24:09;55.50;46.40;29.60
50589;PMS7003;36547;50.514;30.840;2024-03-08T00:25:11;62.00;52.11;30.56
50589;PMS7003;36547;50.514;30.840;2024-03-08T00:26:14;55.40;46.40;29.40
50589;PMS7003;36547;50.514;30.840;2024-03-08T00:27:16;58.20;47.60;29.20
50589;PMS7003;36547;50.514;30.840;2024-03-08T00:28:19;56.00;46.00;29.00
50589;PMS7003;36547;50.514;30.840;2024-03-08T00:29:21;56.67;47.78;27.67
50589;PMS7003;36547;50.514;30.840;2024-03-08T00:30:23;54.00;45.30;28.60
50589;PMS7003;36547;50.514;30.840;2024-03-08T00:31:26;55.50;46.60;28.20
50589;PMS7003;36547;50.514;30.840;2024-03-08T00:32:28;50.40;42.40;27.30
50589;PMS7003;36547;50.514;30.840;2024-03-08T00:33:31;52.00;43.20;28.30
50589;PMS7003;36547;50.514;30.840;2024-03-08T00:34:35;54.60;45.40;28.60
50589;PMS7003;36547;50.514;30.840;2024-03-08T00:35:37;50.80;44.10;27.20
50589;PMS7003;36547;50.514;30.840;2024-03-08T00:36:40;56.00;47.10;30.90
50589;PMS7003;36547;50.514;30.840;2024-03-08T00:37:42;61.00;47.90;29.10
50589;PMS7003;36547;50.514;30.840;2024-03-08T00:38:45;52.90;44.30;27.80
50589;PMS7003;36547;50.514;30.840;2024-03-08T00:40:58;59.40;48.80;30.80
50589;PMS7003;36547;50.514;30.840;2024-03-08T00:42:00;52.10;44.90;27.80
50589;PMS7003;36547;50.514;30.840;2024-03-08T00:43:03;54.50;43.90;27.50
50589;PMS7003;36547;50.514;30.840;2024-03-08T00:44:05;48.90;42.40;27.10
50589;PMS7003;36547;50.514;30.840;2024-03-08T00:45:08;49.50;42.00;26.50
50589;PMS7003;36547;50.514;30.840;2024-03-08T00:46:12;53.70;43.60;27.30
50589;PMS7003;36547;50.514;30.840;2024-03-08T00:47:14;46.56;40.67;25.78
50589;PMS7003;36547;50.514;30.840;2024-03-08T00:48:16;49.90;42.80;27.70
50589;PMS7003;36547;50.514;30.840;2024-03-08T00:49:18;49.22;43.78;27.89
50589;PMS7003;36547;50.514;30.840;2024-03-08T00:50:21;49.60;42.30;27.20
50589;PMS7003;36547;50.514;30.840;2024-03-08T00:51:23;46.90;41.40;26.50
50589;PMS7003;36547;50.514;30.840;2024-03-08T00:52:25;47.60;41.20;25.50
50589;PMS7003;36547;50.514;30.840;2024-03-08T00:53:27;46.40;40.70;26.80
50589;PMS7003;36547;50.514;30.840;2024-03-08T00:54:30;51.20;43.50;28.00
50589;PMS7003;36547;50.514;30.840;2024-03-08T00:55:34;46.60;40.10;26.20
50589;PMS7003;36547;50.514;30.840;2024-03-08T00:56:36;48.70;42.10;27.10
50589;PMS7003;36547;50.514;30.840;2024-03-08T00:57:38;48.20;40.90;26.80
50589;PMS7003;36547;50.514;30.840;2024-03-08T00:58:41;45.70;40.00;25.80
50589;PMS7003;36547;50.514;30.840;2024-03-08T00:59:43;49.50;41.60;26.50
50589;PMS7003;36547;50.514;30.840;2024-03-08T01:00:47;47.30;41.10;26.40
50589;PMS7003;36547;50.514;30.840;2024-03-08T01:01:50;54.40;44.00;27.90
50589;PMS7003;36547;50.514;30.840;2024-03-08T01:02:52;49.44;42.78;27.44
50589;PMS7003;36547;50.514;30.840;2024-03-08T01:03:55;50.40;43.10;27.00
50589;PMS7003;36547;50.514;30.840;2024-03-08T01:04:57;51.56;43.33;26.89
50589;PMS7003;36547;50.514;30.840;2024-03-08T01:05:59;50.22;42.33;26.22
50589;PMS7003;36547;50.514;30.840;2024-03-08T01:07:02;44.90;40.40;25.50
50589;PMS7003;36547;50.514;30.840;2024-03-08T01:08:04;47.50;41.60;25.60
50589;PMS7003;36547;50.514;30.840;2024-03-08T01:09:07;47.10;40.80;26.00
50589;PMS7003;36547;50.514;30.840;2024-03-08T01:10:09;46.10;40.30;24.70
50589;PMS7003;36547;50.514;30.840;2024-03-08T01:11:13;52.00;42.20;27.00
50589;PMS7003;36547;50.514;30.840;2024-03-08T01:12:15;51.80;42.80;27.40
50589;PMS7003;36547;50.514;30.840;2024-03-08T01:13:17;55.60;44.80;28.10
50589;PMS7003;36547;50.514;30.840;2024-03-08T01:14:20;52.30;44.30;27.60
50589;PMS7003;36547;50.514;30.840;2024-03-08T01:15:24;53.40;44.60;27.60
50589;PMS7003;36547;50.514;30.840;2024-03-08T01:16:26;48.70;42.30;27.10
50589;PMS7003;36547;50.514;30.840;2024-03-08T01:17:29;50.40;42.40;27.60
50589;PMS7003;36547;50.514;30.840;2024-03-08T01:18:31;54.10;44.80;27.50
50589;PMS7003;36547;50.514;30.840;2024-03-08T01:19:34;50.50;43.30;27.70
50589;PMS7003;36547;50.514;30.840;2024-03-08T01:20:36;50.90;42.00;26.60
50589;PMS7003;36547;50.514;30.840;2024-03-08T01:21:40;49.70;42.40;27.00
50589;PMS7003;36547;50.514;30.840;2024-03-08T01:22:43;50.10;43.70;27.80
50589;PMS7003;36547;50.514;30.840;2024-03-08T01:23:45;42.67;39.56;26.00
50589;PMS7003;36547;50.514;30.840;2024-03-08T01:24:47;49.40;40.60;26.00
50589;PMS7003;36547;50.514;30.840;2024-03-08T01:25:49;45.00;39.50;26.30
50589;PMS7003;36547;50.514;30.840;2024-03-08T01:26:52;49.30;41.60;25.90
50589;PMS7003;36547;50.514;30.840;2024-03-08T01:28:53;47.20;41.10;26.00
50589;PMS7003;36547;50.514;30.840;2024-03-08T01:29:56;54.40;46.10;29.80
50589;PMS7003;36547;50.514;30.840;2024-03-08T01:30:59;58.45;47.00;28.82
50589;PMS7003;36547;50.514;30.840;2024-03-08T01:32:02;52.82;45.18;27.55
50589;PMS7003;36547;50.514;30.840;2024-03-08T01:33:05;51.30;42.50;26.20
50589;PMS7003;36547;50.514;30.840;2024-03-08T01:34:07;54.50;45.50;29.10
50589;PMS7003;36547;50.514;30.840;2024-03-08T01:35:09;55.30;45.00;28.70
50589;PMS7003;36547;50.514;30.840;2024-03-08T01:36:12;56.40;46.90;28.90
50589;PMS7003;36547;50.514;30.840;2024-03-08T01:37:14;57.50;47.60;29.90
50589;PMS7003;36547;50.514;30.840;2024-03-08T01:38:17;57.40;47.10;30.20
50589;PMS7003;36547;50.514;30.840;2024-03-08T01:39:19;59.30;47.60;29.10
50589;PMS7003;36547;50.514;30.840;2024-03-08T01:40:21;63.00;51.20;33.00
50589;PMS7003;36547;50.514;30.840;2024-03-08T01:41:23;56.22;47.56;29.67
50589;PMS7003;36547;50.514;30.840;2024-03-08T01:42:26;56.30;47.50;31.50
50589;PMS7003;36547;50.514;30.840;2024-03-08T01:43:28;61.10;48.70;29.50
50589;PMS7003;36547;50.514;30.840;2024-03-08T01:44:31;60.10;49.80;29.90
50589;PMS7003;36547;50.514;30.840;2024-03-08T01:45:33;58.22;49.89;30.56
50589;PMS7003;36547;50.514;30.840;2024-03-08T01:46:35;56.60;47.50;29.30
50589;PMS7003;36547;50.514;30.840;2024-03-08T01:47:38;55.40;46.70;27.70
50589;PMS7003;36547;50.514;30.840;2024-03-08T01:48:40;53.40;42.80;27.10
50589;PMS7003;36547;50.514;30.840;2024-03-08T01:49:43;57.27;46.82;28.18
50589;PMS7003;36547;50.514;30.840;2024-03-08T01:50:46;58.40;46.30;29.00
50589;PMS7003;36547;50.514;30.840;2024-03-08T01:51:49;53.00;46.00;29.20
50589;PMS7003;36547;50.514;30.840;2024-03-08T01:52:52;56.09;46.45;29.18
50589;PMS7003;36547;50.514;30.840;2024-03-08T01:53:54;59.40;47.20;29.00
50589;PMS7003;36547;50.514;30.840;2024-03-08T01:54:59;57.20;46.90;27.50
50589;PMS7003;36547;50.514;30.840;2024-03-08T01:56:04;55.80;43.10;28.90
50589;PMS7003;36547;50.514;30.840;2024-03-08T01:57:09;52.20;45.10;27.80
50589;PMS7003;36547;50.514;30.840;2024-03-08T01:58:11;58.20;46.70;29.40
50589;PMS7003;36547;50.514;30.840;2024-03-08T01:59:14;25.10;20.20;18.90
50589;PMS7003;36547;50.514;30.840;2024-03-08T02:00:18;49.40;43.10;28.60
50589;PMS7003;36547;50.514;30.840;2024-03-08T02:01:22;52.60;44.30;28.80
50589;PMS7003;36547;50.514;30.840;2024-03-08T02:02:25;54.40;44.80;27.60
50589;PMS7003;36547;50.514;30.840;2024-03-08T02:03:27;48.20;42.40;26.50
50589;PMS7003;36547;50.514;30.840;2024-03-08T02:04:30;49.22;42.78;27.22
50589;PMS7003;36547;50.514;30.840;2024-03-08T02:05:32;49.30;42.90;27.50
50589;PMS7003;36547;50.514;30.840;2024-03-08T02:06:35;52.70;44.10;28.50
50589;PMS7003;36547;50.514;30.840;2024-03-08T02:07:38;52.90;46.00;28.00
50589;PMS7003;36547;50.514;30.840;2024-03-08T02:08:42;52.10;45.70;29.00
50589;PMS7003;36547;50.514;30.840;2024-03-08T02:09:45;51.00;42.60;26.20
50589;PMS7003;36547;50.514;30.840;2024-03-08T02:10:47;53.70;43.90;28.20
50589;PMS7003;36547;50.514;30.840;2024-03-08T02:11:50;50.80;43.40;27.70
50589;PMS7003;36547;50.514;30.840;2024-03-08T02:12:55;51.90;44.80;27.90
50589;PMS7003;36547;50.514;30.840;2024-03-08T02:13:57;51.00;43.91;28.27
50589;PMS7003;36547;50.514;30.840;2024-03-08T02:14:59;52.33;44.78;27.00
50589;PMS7003;36547;50.514;30.840;2024-03-08T02:16:02;53.20;44.50;28.20
50589;PMS7003;36547;50.514;30.840;2024-03-08T02:17:04;50.50;42.90;27.50
50589;PMS7003;36547;50.514;30.840;2024-03-08T02:18:07;56.80;47.90;28.90
50589;PMS7003;36547;50.514;30.840;2024-03-08T02:19:09;54.89;46.00;29.56
50589;PMS7003;36547;50.514;30.840;2024-03-08T02:20:12;51.30;42.90;28.40
50589;PMS7003;36547;50.514;30.840;2024-03-08T02:21:16;56.90;47.90;29.10
50589;PMS7003;36547;50.514;30.840;2024-03-08T02:22:20;55.20;45.60;29.10
50589;PMS7003;36547;50.514;30.840;2024-03-08T02:23:23;53.40;45.60;30.20
50589;PMS7003;36547;50.514;30.840;2024-03-08T02:24:26;62.80;50.30;31.10
50589;PMS7003;36547;50.514;30.840;2024-03-08T02:25:31;54.70;46.10;29.00
50589;PMS7003;36547;50.514;30.840;2024-03-08T02:26:33;52.60;44.50;28.40
50589;PMS7003;36547;50.514;30.840;2024-03-08T02:27:35;56.40;46.90;28.80
50589;PMS7003;36547;50.514;30.840;2024-03-08T02:28:37;56.56;47.44;28.78
50589;PMS7003;36547;50.514;30.840;2024-03-08T02:29:41;54.70;46.30;29.60
50589;PMS7003;36547;50.514;30.840;2024-03-08T02:30:47;58.60;47.90;30.20
50589;PMS7003;36547;50.514;30.840;2024-03-08T02:31:52;58.00;45.82;29.36
50589;PMS7003;36547;50.514;30.840;2024-03-08T02:32:55;56.90;47.80;29.60
50589;PMS7003;36547;50.514;30.840;2024-03-08T02:33:57;56.40;47.00;29.10
50589;PMS7003;36547;50.514;30.840;2024-03-08T02:35:00;58.10;46.20;28.60
50589;PMS7003;36547;50.514;30.840;2024-03-08T02:36:03;55.20;45.90;29.20
50589;PMS7003;36547;50.514;30.840;2024-03-08T02:37:05;59.90;49.20;31.00
50589;PMS7003;36547;50.514;30.840;2024-03-08T02:38:08;48.44;43.56;26.78
50589;PMS7003;36547;50.514;30.840;2024-03-08T02:39:11;52.70;44.30;27.10
50589;PMS7003;36547;50.514;30.840;2024-03-08T02:40:13;58.40;47.00;29.50
50589;PMS7003;36547;50.514;30.840;2024-03-08T02:41:16;56.40;46.40;29.60
50589;PMS7003;36547;50.514;30.840;2024-03-08T02:42:18;59.89;49.00;30.67
50589;PMS7003;36547;50.514;30.840;2024-03-08T02:43:21;59.00;49.20;29.50
50589;PMS7003;36547;50.514;30.840;2024-03-08T02:44:24;58.80;49.70;29.50
50589;PMS7003;36547;50.514;30.840;2024-03-08T02:45:26;54.80;45.70;29.40
50589;PMS7003;36547;50.514;30.840;2024-03-08T02:46:29;56.10;47.20;28.70
50589;PMS7003;36547;50.514;30.840;2024-03-08T02:47:31;55.90;47.80;29.80
50589;PMS7003;36547;50.514;30.840;2024-03-08T02:48:34;53.09;44.55;29.45
50589;PMS7003;36547;50.514;30.840;2024-03-08T02:49:36;55.80;47.10;28.90
50589;PMS7003;36547;50.514;30.840;2024-03-08T02:50:39;55.10;46.40;28.70
50589;PMS7003;36547;50.514;30.840;2024-03-08T02:51:41;57.33;47.89;30.11
50589;PMS7003;36547;50.514;30.840;2024-03-08T02:52:43;56.78;46.00;28.56
50589;PMS7003;36547;50.514;30.840;2024-03-08T02:53:45;52.20;44.30;28.70
50589;PMS7003;36547;50.514;30.840;2024-03-08T02:54:48;57.60;47.50;28.90
50589;PMS7003;36547;50.514;30.840;2024-03-08T02:55:50;50.30;44.60;28.40
50589;PMS7003;36547;50.514;30.840;2024-03-08T02:56:54;54.60;45.60;28.90
50589;PMS7003;36547;50.514;30.840;2024-03-08T02:57:56;53.30;44.60;28.40
50589;PMS7003;36547;50.514;30.840;2024-03-08T02:58:59;59.50;48.00;28.70
50589;PMS7003;36547;50.514;30.840;2024-03-08T03:00:01;53.78;44.11;29.00
50589;PMS7003;36547;50.514;30.840;2024-03-08T03:01:03;57.50;47.30;29.80
50589;PMS7003;36547;50.514;30.840;2024-03-08T03:02:06;53.20;45.40;29.90
50589;PMS7003;36547;50.514;30.840;2024-03-08T03:03:08;55.00;44.22;28.22
50589;PMS7003;36547;50.514;30.840;2024-03-08T03:04:10;54.50;45.10;28.80
50589;PMS7003;36547;50.514;30.840;2024-03-08T03:05:12;55.20;45.90;28.80
50589;PMS7003;36547;50.514;30.840;2024-03-08T03:06:15;56.70;46.10;29.60
50589;PMS7003;36547;50.514;30.840;2024-03-08T03:07:17;58.33;48.11;28.44
50589;PMS7003;36547;50.514;30.840;2024-03-08T03:08:19;59.22;47.67;29.44
50589;PMS7003;36547;50.514;30.840;2024-03-08T03:09:21;45.89;38.22;20.67
50589;PMS7003;36547;50.514;30.840;2024-03-08T03:10:23;53.33;45.33;28.78
50589;PMS7003;36547;50.514;30.840;2024-03-08T03:11:26;53.80;45.10;28.80
50589;PMS7003;36547;50.514;30.840;2024-03-08T03:12:28;58.20;48.00;31.30
50589;PMS7003;36547;50.514;30.840;2024-03-08T03:13:31;58.30;47.80;28.70
50589;PMS7003;36547;50.514;30.840;2024-03-08T03:14:34;58.22;48.00;29.33
50589;PMS7003;36547;50.514;30.840;2024-03-08T03:15:37;57.10;46.60;30.00
50589;PMS7003;36547;50.514;30.840;2024-03-08T03:16:40;58.00;47.90;29.80
50589;PMS7003;36547;50.514;30.840;2024-03-08T03:18:57;56.00;46.80;29.00
50589;PMS7003;36547;50.514;30.840;2024-03-08T03:19:59;61.40;49.30;31.20
50589;PMS7003;36547;50.514;30.840;2024-03-08T03:21:01;61.40;49.20;30.60
50589;PMS7003;36547;50.514;30.840;2024-03-08T03:22:04;54.80;45.40;28.00
50589;PMS7003;36547;50.514;30.840;2024-03-08T03:23:06;57.80;48.70;30.90
50589;PMS7003;36547;50.514;30.840;2024-03-08T03:24:08;59.40;49.70;30.90
50589;PMS7003;36547;50.514;30.840;2024-03-08T03:25:12;62.10;48.70;29.60
50589;PMS7003;36547;50.514;30.840;2024-03-08T03:26:15;56.50;47.80;29.50
50589;PMS7003;36547;50.514;30.840;2024-03-08T03:27:17;58.56;48.22;29.67
50589;PMS7003;36547;50.514;30.840;2024-03-08T03:28:20;59.27;48.73;29.82
50589;PMS7003;36547;50.514;30.840;2024-03-08T03:29:22;52.89;44.00;28.22
50589;PMS7003;36547;50.514;30.840;2024-03-08T03:30:24;58.40;47.50;30.20
50589;PMS7003;36547;50.514;30.840;2024-03-08T03:31:27;54.50;45.40;29.30
50589;PMS7003;36547;50.514;30.840;2024-03-08T03:32:29;55.44;46.00;29.56
50589;PMS7003;36547;50.514;30.840;2024-03-08T03:33:32;55.00;45.36;28.36
50589;PMS7003;36547;50.514;30.840;2024-03-08T03:34:35;59.20;48.90;29.30
50589;PMS7003;36547;50.514;30.840;2024-03-08T03:35:37;55.80;46.80;29.00
50589;PMS7003;36547;50.514;30.840;2024-03-08T03:36:40;55.50;45.80;28.10
50589;PMS7003;36547;50.514;30.840;2024-03-08T03:37:43;57.20;46.90;30.30
50589;PMS7003;36547;50.514;30.840;2024-03-08T03:38:45;56.20;47.10;29.60
50589;PMS7003;36547;50.514;30.840;2024-03-08T03:39:47;57.60;45.70;29.80
50589;PMS7003;36547;50.514;30.840;2024-03-08T03:40:50;58.10;48.40;30.20
50589;PMS7003;36547;50.514;30.840;2024-03-08T03:41:52;56.89;47.33;30.56
50589;PMS7003;36547;50.514;30.840;2024-03-08T03:42:55;54.30;45.70;29.90
50589;PMS7003;36547;50.514;30.840;2024-03-08T03:43:58;55.60;47.00;29.50
50589;PMS7003;36547;50.514;30.840;2024-03-08T03:45:00;58.67;47.22;28.89
50589;PMS7003;36547;50.514;30.840;2024-03-08T03:46:02;59.80;46.20;30.30
50589;PMS7003;36547;50.514;30.840;2024-03-08T03:47:10;56.80;47.20;30.60
50589;PMS7003;36547;50.514;30.840;2024-03-08T03:48:12;58.50;47.70;29.30
50589;PMS7003;36547;50.514;30.840;2024-03-08T03:49:14;57.22;47.67;31.22
50589;PMS7003;36547;50.514;30.840;2024-03-08T03:50:17;57.60;48.00;29.90
50589;PMS7003;36547;50.514;30.840;2024-03-08T03:51:21;57.60;46.80;29.30
50589;PMS7003;36547;50.514;30.840;2024-03-08T03:52:23;54.20;46.60;29.70
50589;PMS7003;36547;50.514;30.840;2024-03-08T03:53:25;59.11;48.56;30.56
50589;PMS7003;36547;50.514;30.840;2024-03-08T03:54:27;52.00;44.30;28.70
50589;PMS7003;36547;50.514;30.840;2024-03-08T03:55:31;53.36;44.82;28.18
50589;PMS7003;36547;50.514;30.840;2024-03-08T03:56:33;59.60;49.80;31.50
50589;PMS7003;36547;50.514;30.840;2024-03-08T03:57:35;56.30;47.20;30.50
50589;PMS7003;36547;50.514;30.840;2024-03-08T03:58:38;62.00;50.70;30.60
50589;PMS7003;36547;50.514;30.840;2024-03-08T03:59:40;61.56;50.67;31.00
50589;PMS7003;36547;50.514;30.840;2024-03-08T04:00:43;61.40;50.50;30.90
50589;PMS7003;36547;50.514;30.840;2024-03-08T04:01:45;56.22;47.67;31.11
50589;PMS7003;36547;50.514;30.840;2024-03-08T04:02:47;55.00;46.33;28.78
50589;PMS7003;36547;50.514;30.840;2024-03-08T04:03:49;59.60;49.60;32.70
50589;PMS7003;36547;50.514;30.840;2024-03-08T04:04:55;57.30;47.80;30.10
50589;PMS7003;36547;50.514;30.840;2024-03-08T04:05:57;59.30;49.10;31.50
50589;PMS7003;36547;50.514;30.840;2024-03-08T04:06:59;59.60;48.40;31.80
50589;PMS7003;36547;50.514;30.840;2024-03-08T04:08:02;62.60;51.00;31.30
50589;PMS7003;36547;50.514;30.840;2024-03-08T04:09:04;59.90;49.10;31.10
50589;PMS7003;36547;50.514;30.840;2024-03-08T04:10:07;60.60;49.60;32.20
50589;PMS7003;36547;50.514;30.840;2024-03-08T04:11:11;64.50;51.50;33.10
50589;PMS7003;36547;50.514;30.840;2024-03-08T04:12:13;64.70;52.80;32.70
50589;PMS7003;36547;50.514;30.840;2024-03-08T04:13:16;64.10;53.30;33.10
50589;PMS7003;36547;50.514;30.840;2024-03-08T04:14:18;65.90;51.90;32.70
50589;PMS7003;36547;50.514;30.840;2024-03-08T04:15:21;62.60;52.80;32.90
50589;PMS7003;36547;50.514;30.840;2024-03-08T04:16:23;70.50;55.60;34.20
50589;PMS7003;36547;50.514;30.840;2024-03-08T04:17:25;67.20;53.60;33.50
50589;PMS7003;36547;50.514;30.840;2024-03-08T04:18:27;62.33;52.56;33.22
50589;PMS7003;36547;50.514;30.840;2024-03-08T04:19:29;66.78;53.78;34.56
50589;PMS7003;36547;50.514;30.840;2024-03-08T04:20:32;69.00;55.00;34.70
50589;PMS7003;36547;50.514;30.840;2024-03-08T04:21:34;68.60;55.30;34.90
50589;PMS7003;36547;50.514;30.840;2024-03-08T04:22:36;64.00;51.33;31.67
50589;PMS7003;36547;50.514;30.840;2024-03-08T04:23:39;71.45;57.64;35.55
50589;PMS7003;36547;50.514;30.840;2024-03-08T04:24:42;72.70;56.50;34.90
50589;PMS7003;36547;50.514;30.840;2024-03-08T04:25:45;67.60;53.80;34.80
50589;PMS7003;36547;50.514;30.840;2024-03-08T04:26:48;72.40;57.70;35.40
50589;PMS7003;36547;50.514;30.840;2024-03-08T04:27:50;72.78;57.44;36.44
50589;PMS7003;36547;50.514;30.840;2024-03-08T04:28:53;72.50;56.00;35.60
50589;PMS7003;36547;50.514;30.840;2024-03-08T04:29:55;71.30;58.40;36.90
50589;PMS7003;36547;50.514;30.840;2024-03-08T04:30:58;74.60;57.90;36.60
50589;PMS7003;36547;50.514;30.840;2024-03-08T04:32:02;72.60;57.50;35.10
50589;PMS7003;36547;50.514;30.840;2024-03-08T04:33:05;71.30;58.50;37.00
50589;PMS7003;36547;50.514;30.840;2024-03-08T04:34:08;69.30;54.20;34.60
50589;PMS7003;36547;50.514;30.840;2024-03-08T04:35:10;68.10;54.60;34.10
50589;PMS7003;36547;50.514;30.840;2024-03-08T04:36:13;70.10;57.00;35.20
50589;PMS7003;36547;50.514;30.840;2024-03-08T04:37:16;71.20;55.90;35.40
50589;PMS7003;36547;50.514;30.840;2024-03-08T04:38:18;72.11;57.11;36.67
50589;PMS7003;36547;50.514;30.840;2024-03-08T04:39:20;70.67;57.33;36.67
50589;PMS7003;36547;50.514;30.840;2024-03-08T04:40:23;67.82;55.27;34.55
50589;PMS7003;36547;50.514;30.840;2024-03-08T04:41:25;68.30;55.40;34.60
50589;PMS7003;36547;50.514;30.840;2024-03-08T04:42:28;68.90;55.60;36.50
50589;PMS7003;36547;50.514;30.840;2024-03-08T04:43:33;67.30;55.00;33.90
50589;PMS7003;36547;50.514;30.840;2024-03-08T04:44:37;71.60;55.90;34.10
50589;PMS7003;36547;50.514;30.840;2024-03-08T04:45:39;69.00;55.70;34.00
50589;PMS7003;36547;50.514;30.840;2024-03-08T04:46:41;69.56;56.56;35.78
50589;PMS7003;36547;50.514;30.840;2024-03-08T04:47:44;66.30;54.70;35.30
50589;PMS7003;36547;50.514;30.840;2024-03-08T04:48:46;69.50;55.00;34.80
50589;PMS7003;36547;50.514;30.840;2024-03-08T04:49:48;71.11;56.78;35.00
50589;PMS7003;36547;50.514;30.840;2024-03-08T04:50:51;68.80;56.50;36.10
50589;PMS7003;36547;50.514;30.840;2024-03-08T04:51:53;73.00;56.80;36.70
50589;PMS7003;36547;50.514;30.840;2024-03-08T04:52:55;74.78;58.89;37.00
50589;PMS7003;36547;50.514;30.840;2024-03-08T04:53:57;69.80;57.00;35.20
50589;PMS7003;36547;50.514;30.840;2024-03-08T04:55:00;73.90;59.40;36.60
50589;PMS7003;36547;50.514;30.840;2024-03-08T04:56:03;75.80;58.60;37.00
50589;PMS7003;36547;50.514;30.840;2024-03-08T04:57:06;72.36;56.91;33.45
50589;PMS7003;36547;50.514;30.840;2024-03-08T04:58:10;75.40;58.30;36.80
50589;PMS7003;36547;50.514;30.840;2024-03-08T04:59:12;67.60;53.40;27.90
50589;PMS7003;36547;50.514;30.840;2024-03-08T05:00:15;72.40;57.30;36.80
50589;PMS7003;36547;50.514;30.840;2024-03-08T05:01:18;75.70;59.50;37.70
50589;PMS7003;36547;50.514;30.840;2024-03-08T05:02:21;77.50;59.70;35.90
50589;PMS7003;36547;50.514;30.840;2024-03-08T05:03:23;77.60;60.30;37.30
50589;PMS7003;36547;50.514;30.840;2024-03-08T05:04:26;78.40;60.20;37.90
50589;PMS7003;36547;50.514;30.840;2024-03-08T05:05:28;48.70;38.30;13.90
50589;PMS7003;36547;50.514;30.840;2024-03-08T05:06:30;79.56;59.89;37.44
50589;PMS7003;36547;50.514;30.840;2024-03-08T05:07:33;70.40;56.90;35.90
50589;PMS7003;36547;50.514;30.840;2024-03-08T05:08:35;73.30;58.50;36.40
50589;PMS7003;36547;50.514;30.840;2024-03-08T05:09:37;70.56;55.78;34.00
50589;PMS7003;36547;50.514;30.840;2024-03-08T05:10:40;70.50;57.00;35.00
50589;PMS7003;36547;50.514;30.840;2024-03-08T05:11:43;70.20;57.00;35.40
50589;PMS7003;36547;50.514;30.840;2024-03-08T05:12:46;69.00;56.70;34.50
50589;PMS7003;36547;50.514;30.840;2024-03-08T05:13:48;64.89;52.33;33.11
50589;PMS7003;36547;50.514;30.840;2024-03-08T05:14:50;68.70;54.50;33.90
50589;PMS7003;36547;50.514;30.840;2024-03-08T05:15:53;69.10;54.60;34.30
50589;PMS7003;36547;50.514;30.840;2024-03-08T05:16:56;67.40;54.00;33.90
50589;PMS7003;36547;50.514;30.840;2024-03-08T05:17:57;62.00;52.67;32.78
50589;PMS7003;36547;50.514;30.840;2024-03-08T05:19:00;68.60;52.50;32.50
50589;PMS7003;36547;50.514;30.840;2024-03-08T05:20:03;66.50;54.00;33.00
50589;PMS7003;36547;50.514;30.840;2024-03-08T05:21:06;65.00;52.90;32.60
50589;PMS7003;36547;50.514;30.840;2024-03-08T05:22:08;64.60;53.20;32.00
50589;PMS7003;36547;50.514;30.840;2024-03-08T05:23:10;65.20;52.00;32.20
50589;PMS7003;36547;50.514;30.840;2024-03-08T05:24:13;59.10;50.10;30.20
50589;PMS7003;36547;50.514;30.840;2024-03-08T05:25:16;59.70;48.70;31.90
50589;PMS7003;36547;50.514;30.840;2024-03-08T05:26:19;62.50;50.60;31.70
50589;PMS7003;36547;50.514;30.840;2024-03-08T05:27:21;57.00;47.33;30.89
50589;PMS7003;36547;50.514;30.840;2024-03-08T05:28:24;60.50;49.50;31.40
50589;PMS7003;36547;50.514;30.840;2024-03-08T05:29:26;58.89;49.33;31.78
50589;PMS7003;36547;50.514;30.840;2024-03-08T05:30:29;53.64;44.45;29.00
50589;PMS7003;36547;50.514;30.840;2024-03-08T05:31:32;57.00;48.22;29.22
50589;PMS7003;36547;50.514;30.840;2024-03-08T05:32:37;58.80;46.00;28.50
50589;PMS7003;36547;50.514;30.840;2024-03-08T05:33:39;55.20;45.30;28.10
50589;PMS7003;36547;50.514;30.840;2024-03-08T05:34:42;49.90;42.60;25.70
50589;PMS7003;36547;50.514;30.840;2024-03-08T05:35:45;49.50;42.80;28.20
50589;PMS7003;36547;50.514;30.840;2024-03-08T05:36:47;49.20;41.50;27.90
50589;PMS7003;36547;50.514;30.840;2024-03-08T05:37:50;51.50;43.60;28.20
50589;PMS7003;36547;50.514;30.840;2024-03-08T05:38:53;55.00;46.00;27.60
50589;PMS7003;36547;50.514;30.840;2024-03-08T05:39:55;44.40;40.50;24.70
50589;PMS7003;36547;50.514;30.840;2024-03-08T05:40:57;49.40;40.60;26.40
50589;PMS7003;36547;50.514;30.840;2024-03-08T05:41:59;46.78;41.89;26.89
50589;PMS7003;36547;50.514;30.840;2024-03-08T05:43:01;50.78;42.89;26.56
50589;PMS7003;36547;50.514;30.840;2024-03-08T05:44:05;45.50;40.40;27.20
50589;PMS7003;36547;50.514;30.840;2024-03-08T05:45:07;45.90;41.30;27.50
50589;PMS7003;36547;50.514;30.840;2024-03-08T05:46:15;52.30;44.10;28.00
50589;PMS7003;36547;50.514;30.840;2024-03-08T05:47:17;53.00;44.70;27.90
50589;PMS7003;36547;50.514;30.840;2024-03-08T05:48:19;49.70;40.60;27.40
50589;PMS7003;36547;50.514;30.840;2024-03-08T05:49:21;54.30;45.70;28.20